Briggs, TX (78608)

3:38 AM CST on February 14, 2016 (GMT -0600)
KK2Z-13, Burnet County TX | | Change Station
CLOSE
Current Station
Personal Weather Station
Location: Burnet, TX
Elevation: 1276 ft
Nearby Weather Stations

Elev 1276 ft 30.88 °N, 98.10 °W | Updated 1 minute ago

Overcast
Overcast
56.5 °F
Feels Like 56.5 °F
N
8.0
Wind Variable Wind from South
Gusts 18.0 mph

Today
High -- | Low -- °F
--% Chance of Precip.
Yesterday
High -- | Low -- °F
Precip. -- in
Pressure 30.01 in
Visibility 10.0 miles
Clouds Mostly Cloudy 1300 ft
Overcast 2400 ft
Dew Point 53 °F
Humidity 88%
Rainfall 0.00 in
Snow Depth Not available.
7:14 AM 6:18 PM
Waxing Crescent, 40% visible
SPECI KGRK 140918Z AUTO 16014KT 10SM BKN013 OVC024 14/12 A3001 RMK AO2 CIG 013V024
Pressure 30.01 in
Visibility 10.0 miles
Clouds Mostly Cloudy 1300 ft
Overcast 2400 ft
Dew Point 53 °F
Humidity 88%
Rainfall 0.00 in
Snow Depth Not available.
7:14 AM 6:18 PM
Waxing Crescent, 40% visible
SPECI KGRK 140918Z AUTO 16014KT 10SM BKN013 OVC024 14/12 A3001 RMK AO2 CIG 013V024

10-Day Weather Forecast

Almanac

Astronomy

Feb. 14, 2016 Rise Set
Actual Time
Civil Twilight
Nautical Twilight
Astronomical Twilight
Moon
Length of Visible Light
Length of Day
Tomorrow will be .
, % of the Moon is Illuminated

Today's Extremes

State Highs State Lows

Community

WunderPhotos

Upload Photos

1,892,761 photos uploaded!

WunderBlog® & News

Nearby

Air Quality

  Air Quality AQ Index Pollutant
Not available.

Snow Depth

Station Depth Elevation

Earthquake Activity

City Distance Mag. Time & Date
Minimum magnitude displayed is 2.5.

Coastal Water Temperatures

Place Temperature

Stations

Nearby Weather Stations

Station Location Temp. Windchill Dew Point Humidity Wind Precip. Elev Updated Type
                   

Watches & Warnings

There are currently no watches in effect.